Terminal Aerodrome Forecast
Issued by NWS Sioux Falls, SD

Home | Current Version | Previous Version | Text Only | Print | Product List | Glossary On
Versions: 1 2 3 4 5 6 7 8 9 10 11 12
000
FTUS43 KFSD 222320
TAFSUX
TAF
KSUX 222320Z 2300/2324 16017G24KT P6SM SCT120
     FM230600 16012KT P6SM SCT250 WS020/19043KT
     FM230900 16009KT P6SM SCT250
     FM231100 15007KT P6SM SCT050
     FM231800 17012KT P6SM SCT050=

USA.gov is the U.S. government's official web portal to all federal, state and local government web resources and services.